Terminal Aerodrome Forecast
Issued by NWS Mt. Holly, NJ

Home | Current Version | Previous Version | Text Only | Print | Product List | Glossary On
Versions: 1 2 3 4 5 6 7 8 9 10 11 12 13 14 15 16 17 18 19 20 21 22 23 24 25 26
000
FTUS41 KPHI 261100
TAFABE
TAF
KABE 261120Z 2612/2712 VRB04KT P6SM OVC100
     FM261400 04005KT 3SM -RASN OVC040
     FM261600 01010KT 1SM -SN OVC007
      TEMPO 2616/2620 1/2SM SN OVC003
     FM270000 32010KT 3SM -SN OVC015
     FM270600 33005KT P6SM BKN040=

USA.gov is the U.S. government's official web portal to all federal, state and local government web resources and services.